Time;durP1;ratioP1;P1;durP2;ratioP2;P2;SDS_P1;SDS_P2;PMS_P1;PMS_P2;Temp;Humidity;BMP_temperature;BMP_pressure;BME280_temperature;BME280_humidity;BME280_pressure;Samples;Min_cycle;Max_cycle;Signal;HPM_P1;HPM_P2
2022/11/02 00:01:42;;;;;;;37.92;5.35;;;;;;;14.53;100.00;100849.31;5095386;28;20044;-68
2022/11/02 00:04:08;;;;;;;33.72;4.75;;;;;;;14.54;100.00;100856.41;5108302;28;20494;-69
2022/11/02 00:06:33;;;;;;;41.03;4.68;;;;;;;14.54;100.00;100849.09;5077639;28;20088;-68
2022/11/02 00:08:59;;;;;;;28.10;4.53;;;;;;;14.54;100.00;100854.53;5085828;28;20051;-68
2022/11/02 00:11:24;;;;;;;36.65;6.07;;;;;;;14.47;100.00;100833.94;5103315;28;20031;-68
2022/11/02 00:13:49;;;;;;;32.75;4.60;;;;;;;14.39;100.00;100821.53;5096516;28;20493;-68
2022/11/02 00:16:17;;;;;;;32.65;4.85;;;;;;;14.54;100.00;100846.41;5108432;28;20063;-68
2022/11/02 00:18:45;;;;;;;31.80;5.60;;;;;;;14.50;100.00;100839.78;5096301;28;20397;-68
2022/11/02 00:21:13;;;;;;;29.42;5.40;;;;;;;14.50;100.00;100834.38;5102289;28;20024;-68
2022/11/02 00:23:40;;;;;;;27.25;4.38;;;;;;;14.50;100.00;100834.38;5105390;28;20096;-68
2022/11/02 00:26:06;;;;;;;39.70;5.35;;;;;;;14.33;100.00;100808.88;5094803;28;20107;-68
2022/11/02 00:28:31;;;;;;;29.33;3.92;;;;;;;14.28;100.00;100812.25;5107539;28;20027;-68
2022/11/02 00:30:57;;;;;;;34.63;5.28;;;;;;;14.27;100.00;100813.31;5099346;28;20028;-68
2022/11/02 00:33:22;;;;;;;35.65;5.15;;;;;;;14.43;100.00;100838.97;5064442;28;20031;-68
2022/11/02 00:35:48;;;;;;;23.55;3.83;;;;;;;14.41;100.00;100829.44;5105991;28;20524;-68
2022/11/02 00:38:13;;;;;;;33.95;4.63;;;;;;;14.35;100.00;100833.84;5076384;28;20517;-68
2022/11/02 00:40:38;;;;;;;29.58;4.85;;;;;;;14.34;100.00;100840.31;5106642;28;20066;-68
2022/11/02 00:43:07;;;;;;;25.45;4.00;;;;;;;14.30;100.00;100831.81;5100039;28;20039;-68
2022/11/02 00:45:32;;;;;;;28.05;4.50;;;;;;;14.16;100.00;100808.63;5079956;28;20069;-68
2022/11/02 00:48:00;;;;;;;27.63;4.03;;;;;;;14.23;100.00;100816.69;5089041;28;20114;-68
2022/11/02 00:50:25;;;;;;;32.50;4.82;;;;;;;14.21;100.00;100829.63;5076394;28;20023;-68
2022/11/02 00:52:51;;;;;;;28.83;4.10;;;;;;;14.16;100.00;100824.84;5104694;28;20035;-68
2022/11/02 00:55:17;;;;;;;28.85;4.95;;;;;;;14.14;100.00;100823.41;5103848;28;20100;-68
2022/11/02 00:57:43;;;;;;;32.60;4.85;;;;;;;13.92;100.00;100795.94;5083363;28;20056;-68
2022/11/02 01:00:10;;;;;;;27.00;3.75;;;;;;;13.88;100.00;100789.34;5093903;28;20034;-68
2022/11/02 01:02:36;;;;;;;21.45;3.97;;;;;;;13.94;100.00;100794.69;5081677;28;20505;-68
2022/11/02 01:05:03;;;;;;;28.95;4.05;;;;;;;14.03;100.00;100816.88;5071988;28;20043;-68
2022/11/02 01:07:29;;;;;;;29.05;3.90;;;;;;;14.01;100.00;100827.91;5107076;28;20024;-68
2022/11/02 01:09:54;;;;;;;37.08;4.68;;;;;;;13.99;100.00;100816.47;5099815;28;20076;-68
2022/11/02 01:12:20;;;;;;;26.70;4.03;;;;;;;13.89;100.00;100799.09;5093436;28;20036;-68
2022/11/02 01:14:46;;;;;;;29.30;4.32;;;;;;;13.91;100.00;100819.47;5100959;28;20069;-68
2022/11/02 01:17:12;;;;;;;27.38;4.15;;;;;;;13.95;100.00;100819.88;5105492;28;20043;-68
2022/11/02 01:19:37;;;;;;;25.83;4.13;;;;;;;13.93;100.00;100817.34;5072702;28;20035;-69
2022/11/02 01:22:03;;;;;;;29.25;4.55;;;;;;;13.70;100.00;100773.88;5080305;28;20066;-68
2022/11/02 01:24:28;;;;;;;32.13;5.00;;;;;;;13.91;100.00;100819.47;5093398;28;20110;-69
2022/11/02 01:26:54;;;;;;;35.80;4.38;;;;;;;13.75;100.00;100790.28;5083654;28;20043;-69
2022/11/02 01:29:19;;;;;;;28.33;4.22;;;;;;;13.74;100.00;100792.16;5104417;28;20032;-69
2022/11/02 01:31:45;;;;;;;32.63;4.68;;;;;;;13.77;100.00;100799.78;5090684;28;20034;-69
2022/11/02 01:34:10;;;;;;;30.08;4.45;;;;;;;13.82;100.00;100818.09;5062848;28;20530;-69
2022/11/02 01:36:36;;;;;;;39.80;4.80;;;;;;;13.80;100.00;100809.34;5110241;28;20023;-69
2022/11/02 01:39:02;;;;;;;28.33;4.35;;;;;;;13.79;100.00;100815.81;5102952;28;20055;-69
2022/11/02 01:41:27;;;;;;;26.98;4.53;;;;;;;13.74;100.00;100810.22;5084893;28;20034;-69
2022/11/02 01:44:24;;;;;;;32.50;4.32;;;;;;;13.73;100.00;100805.88;5091609;28;20040;-69
2022/11/02 01:46:54;;;;;;;27.02;4.15;;;;;;;13.70;100.00;100801.72;5068398;28;20047;-69
2022/11/02 01:49:21;;;;;;;19.65;3.70;;;;;;;13.67;100.00;100814.88;5082391;28;20035;-69
2022/11/02 01:52:27;;;;;;;29.20;4.20;;;;;;;13.66;100.00;100799.69;5059571;28;20123;-69
2022/11/02 01:54:59;;;;;;;21.75;3.83;;;;;;;13.62;100.00;100797.44;5048334;28;20611;-69
2022/11/02 01:57:27;;;;;;;24.02;3.55;;;;;;;13.57;100.00;100782.91;5080169;28;20063;-69
2022/11/02 02:00:06;;;;;;;25.90;3.70;;;;;;;13.66;100.00;100789.69;5086271;28;20036;-69
2022/11/02 02:02:35;;;;;;;26.33;3.97;;;;;;;13.70;100.00;100792.78;5042508;28;20036;-69
2022/11/02 02:05:08;;;;;;;27.75;4.07;;;;;;;13.54;100.00;100765.28;5066840;28;20399;-69
2022/11/02 02:07:43;;;;;;;28.02;4.25;;;;;;;13.75;100.00;100790.28;5083700;28;20044;-69
2022/11/02 02:10:10;;;;;;;26.70;3.95;;;;;;;13.75;100.00;100792.97;5058141;28;20507;-69
2022/11/02 02:12:38;;;;;;;31.65;4.10;;;;;;;13.68;100.00;100778.69;5087239;28;20044;-67
2022/11/02 02:15:04;;;;;;;18.85;4.05;;;;;;;13.75;100.00;100787.56;5046035;28;20036;-67
2022/11/02 02:17:49;;;;;;;20.67;4.13;;;;;;;13.81;100.00;100795.63;5089552;28;20085;-67
2022/11/02 02:20:35;;;;;;;25.08;4.32;;;;;;;13.79;100.00;100789.59;5110274;28;20032;-66
2022/11/02 02:23:03;;;;;;;31.15;3.92;;;;;;;13.81;100.00;100783.97;5101617;28;20102;-70
2022/11/02 02:26:09;;;;;;;22.13;3.55;;;;;;;13.84;100.00;100788.91;5083901;28;20028;-67
2022/11/02 02:28:50;;;;;;;;;;;;;;;13.85;100.00;100790.59;5063883;28;20016;-68
2022/11/02 02:31:54;;;;;;;18.17;3.83;;;;;;;13.84;100.00;100783.50;5085661;28;20060;-68
2022/11/02 02:34:37;;;;;;;28.38;3.60;;;;;;;13.85;100.00;100777.06;5110348;28;20024;-68
2022/11/02 02:37:12;;;;;;;24.75;3.22;;;;;;;13.95;100.00;100769.28;5101494;28;20042;-68
2022/11/02 02:39:50;;;;;;;22.80;3.92;;;;;;;13.97;100.00;100767.19;5082429;28;20498;-68
2022/11/02 02:43:04;;;;;;;25.13;3.63;;;;;;;14.02;100.00;100767.34;5091697;28;20076;-68
2022/11/02 02:45:54;;;;;;;21.40;3.35;;;;;;;14.10;100.00;100772.47;4991302;28;20587;-68
2022/11/02 02:48:22;;;;;;;22.17;3.80;;;;;;;14.16;100.00;100778.03;5060777;28;20039;-68
2022/11/02 02:50:50;;;;;;;19.70;2.85;;;;;;;14.17;100.00;100774.28;5099036;28;20044;-68
2022/11/02 02:53:23;;;;;;;21.25;3.10;;;;;;;14.21;100.00;100775.50;5103526;28;20031;-68
2022/11/02 02:55:49;;;;;;;28.45;3.63;;;;;;;14.21;100.00;100779.03;5089297;28;20032;-68
2022/11/02 02:58:39;;;;;;;26.27;3.28;;;;;;;14.23;100.00;100779.63;5096024;28;20059;-68
2022/11/02 03:01:05;;;;;;;19.50;3.50;;;;;;;14.25;100.00;100774.81;5045452;28;20080;-68
2022/11/02 03:03:33;;;;;;;21.23;3.55;;;;;;;14.28;100.00;100779.78;5045507;28;20119;-67
2022/11/02 03:06:18;;;;;;;21.48;3.60;;;;;;;14.33;100.00;100779.09;5054436;28;20052;-68
2022/11/02 03:08:59;;;;;;;22.98;3.90;;;;;;;14.34;100.00;100778.06;5040923;28;20443;-68
2022/11/02 03:11:24;;;;;;;20.17;3.15;;;;;;;14.34;100.00;100775.38;5059340;28;20472;-68
2022/11/02 03:14:05;;;;;;;18.58;3.15;;;;;;;14.35;100.00;100768.88;5047760;28;20040;-68
2022/11/02 03:17:02;;;;;;;18.35;3.30;;;;;;;14.40;100.00;100785.25;5036283;28;20040;-68
2022/11/02 03:19:39;;;;;;;26.05;4.20;;;;;;;14.39;100.00;100778.19;5058819;28;20450;-68
2022/11/02 03:22:32;;;;;;;21.25;4.53;;;;;;;14.42;100.00;100780.47;5066278;28;20051;-68
2022/11/02 03:25:03;;;;;;;25.20;3.90;;;;;;;14.43;100.00;100773.16;5044273;28;20115;-68
2022/11/02 03:27:38;;;;;;;20.17;3.53;;;;;;;14.30;100.00;100763.31;5041791;28;20072;-68
2022/11/02 03:30:14;;;;;;;21.05;3.25;;;;;;;14.45;100.00;100774.59;5049213;28;20028;-68
2022/11/02 03:32:49;;;;;;;21.25;3.13;;;;;;;14.46;100.00;100773.53;5054328;28;20421;-68
2022/11/02 03:35:24;;;;;;;24.65;3.78;;;;;;;14.44;100.00;100769.44;5102962;28;20028;-68
2022/11/02 03:38:00;;;;;;;26.27;3.60;;;;;;;14.47;100.00;100767.09;5088318;28;20028;-67
2022/11/02 03:40:31;;;;;;;18.30;2.95;;;;;;;14.47;100.00;100767.09;5095471;28;20028;-68
2022/11/02 03:43:18;;;;;;;23.13;3.97;;;;;;;14.47;100.00;100760.81;5105443;28;20117;-68
2022/11/02 03:46:09;;;;;;;26.10;3.60;;;;;;;14.43;100.00;100744.22;5049302;28;20036;-68
2022/11/02 03:48:45;;;;;;;18.63;3.33;;;;;;;14.35;100.00;100728.28;5032752;28;20041;-68
2022/11/02 03:51:14;;;;;;;18.35;3.42;;;;;;;14.45;100.00;100749.41;5045019;28;20053;-68
2022/11/02 03:54:05;;;;;;;21.55;3.45;;;;;;;14.46;100.00;100741.06;5049580;28;20040;-68
2022/11/02 03:56:40;;;;;;;22.48;3.58;;;;;;;14.45;100.00;100739.41;5032671;28;20080;-68
2022/11/02 03:59:06;;;;;;;;;;;;;;;14.46;100.00;100746.47;5049596;28;20048;-68
2022/11/02 04:01:40;;;;;;;19.15;3.78;;;;;;;14.44;100.00;100747.78;5049262;28;19948;-67
2022/11/02 04:04:06;;;;;;;21.70;3.20;;;;;;;14.43;100.00;100746.09;5049202;28;20041;-68
2022/11/02 04:06:32;;;;;;;25.55;4.13;;;;;;;14.42;100.00;100739.03;5032523;28;20069;-68
2022/11/02 04:08:58;;;;;;;28.00;4.32;;;;;;;14.45;100.00;100744.81;5048992;28;20025;-68
2022/11/02 04:19:40;;;;;;;22.92;4.00;;;;;;;14.40;100.00;100731.13;5008007;28;20052;-68
2022/11/02 04:27:35;;;;;;;22.40;3.75;;;;;;;14.43;100.00;100736.09;5099779;28;20556;-68
2022/11/02 04:30:00;;;;;;;26.08;3.67;;;;;;;14.43;100.00;100738.78;5071523;28;20031;-68
2022/11/02 04:35:20;;;;;;;24.67;3.80;;;;;;;14.37;100.00;100736.16;5051345;28;20531;-68
2022/11/02 04:40:30;;;;;;;19.25;3.28;;;;;;;14.42;100.00;100742.56;5079541;28;20131;-68
2022/11/02 04:42:55;;;;;;;29.75;3.88;;;;;;;14.22;100.00;100729.25;5086509;28;20036;-68
2022/11/02 04:45:21;;;;;;;22.60;3.38;;;;;;;14.35;100.00;100747.22;5083478;28;20027;-68
2022/11/02 04:47:46;;;;;;;27.38;4.57;;;;;;;14.35;100.00;100747.22;5079399;28;20425;-68
2022/11/02 04:50:11;;;;;;;20.20;3.53;;;;;;;14.38;100.00;100746.78;5089505;28;20448;-68
2022/11/02 04:52:37;;;;;;;27.27;3.35;;;;;;;14.35;100.00;100744.53;5095114;28;20508;-68
2022/11/02 04:55:03;;;;;;;25.65;4.20;;;;;;;14.35;100.00;100747.22;5103687;28;20505;-68
2022/11/02 04:57:29;;;;;;;22.42;4.30;;;;;;;14.27;100.00;100726.72;5102288;28;20056;-68
2022/11/02 04:59:54;;;;;;;29.27;4.32;;;;;;;14.31;100.00;100733.31;5096036;28;20028;-68
2022/11/02 05:02:19;;;;;;;17.70;3.63;;;;;;;14.23;100.00;100714.66;5107779;28;20062;-68
2022/11/02 05:04:45;;;;;;;25.67;4.15;;;;;;;14.24;100.00;100715.50;5061340;28;20057;-67
2022/11/02 05:07:10;;;;;;;25.52;4.28;;;;;;;14.29;100.00;100718.34;5084801;28;20043;-67
2022/11/02 05:09:36;;;;;;;25.73;3.95;;;;;;;14.21;100.00;100718.66;5103072;28;20426;-69
2022/11/02 05:12:03;;;;;;;29.35;4.32;;;;;;;14.28;100.00;100725.66;5060458;28;20046;-68
2022/11/02 05:14:30;;;;;;;25.30;3.92;;;;;;;14.29;100.00;100734.59;5089324;28;20469;-67
2022/11/02 05:16:58;;;;;;;33.40;4.90;;;;;;;14.29;100.00;100727.28;5097398;28;20043;-66
2022/11/02 05:19:24;;;;;;;23.95;4.15;;;;;;;14.20;100.00;100707.00;5062100;28;20495;-67
2022/11/02 05:21:49;;;;;;;27.73;3.63;;;;;;;14.31;100.00;100718.97;5098851;28;20114;-67
2022/11/02 05:24:15;;;;;;;24.88;3.80;;;;;;;14.26;100.00;100716.91;5094122;28;20053;-67
2022/11/02 05:26:40;;;;;;;23.40;3.50;;;;;;;14.18;100.00;100708.28;5088734;28;20020;-67
2022/11/02 05:29:06;;;;;;;34.28;4.00;;;;;;;14.27;100.00;100723.16;5080525;28;20032;-67
2022/11/02 05:31:32;;;;;;;26.60;4.30;;;;;;;14.28;100.00;100722.13;5099542;28;20074;-67
2022/11/02 05:33:57;;;;;;;31.13;4.40;;;;;;;14.24;100.00;100718.22;5105796;28;20427;-66
2022/11/02 05:36:22;;;;;;;29.02;4.57;;;;;;;14.14;100.00;100712.47;5075907;28;20546;-66
2022/11/02 05:39:08;;;;;;;39.55;4.95;;;;;;;14.25;100.00;100706.34;5105434;28;20123;-66
2022/11/02 05:41:33;;;;;;;31.23;4.88;;;;;;;14.23;100.00;100716.53;5050947;28;20589;-66
2022/11/02 05:43:59;;;;;;;30.60;4.07;;;;;;;14.12;100.00;100695.66;5034967;28;20052;-66
2022/11/02 05:46:24;;;;;;;35.00;4.50;;;;;;;14.21;100.00;100705.97;5051231;28;20047;-66
2022/11/02 05:48:50;;;;;;;32.92;4.70;;;;;;;14.17;100.00;100690.38;5031588;28;20052;-66
2022/11/02 05:51:15;;;;;;;31.55;4.78;;;;;;;14.11;100.00;100686.72;5024061;28;20049;-66
2022/11/02 05:53:41;;;;;;;25.45;4.13;;;;;;;14.12;100.00;100690.25;5018750;28;20051;-67
2022/11/02 05:56:08;;;;;;;22.52;4.38;;;;;;;14.16;100.00;100713.09;5051396;28;20041;-66
2022/11/02 05:58:34;;;;;;;30.38;4.20;;;;;;;14.16;100.00;100705.78;5034450;28;20059;-67
2022/11/02 06:01:20;;;;;;;28.08;4.10;;;;;;;14.16;100.00;100702.25;5031403;28;20512;-67
2022/11/02 06:03:45;;;;;;;29.23;3.50;;;;;;;14.05;100.00;100698.44;4988629;28;20588;-67
2022/11/02 06:06:11;;;;;;;21.92;3.22;;;;;;;14.09;100.00;100700.47;5011305;28;20152;-66
2022/11/02 06:08:38;;;;;;;26.27;3.75;;;;;;;14.14;100.00;100707.91;5011705;28;20029;-66
2022/11/02 06:11:08;;;;;;;27.73;4.15;;;;;;;14.14;100.00;100709.78;5011620;28;20053;-66
2022/11/02 06:13:34;;;;;;;31.77;5.20;;;;;;;14.16;100.00;100710.38;5047498;28;20174;-66
2022/11/02 06:16:01;;;;;;;26.35;3.78;;;;;;;14.18;100.00;100705.59;5031614;28;20037;-66
2022/11/02 06:18:27;;;;;;;26.75;4.55;;;;;;;14.23;100.00;100703.00;5035136;28;20132;-66
2022/11/02 06:20:52;;;;;;;24.13;4.05;;;;;;;14.22;100.00;100698.66;5034064;28;20508;-66
2022/11/02 06:23:18;;;;;;;31.85;4.68;;;;;;;14.03;100.00;100670.75;5036774;28;20499;-66
2022/11/02 06:25:53;;;;;;;27.73;3.92;;;;;;;14.22;100.00;100702.19;5051084;28;21006;-66
2022/11/02 06:28:19;;;;;;;36.70;4.72;;;;;;;14.17;100.00;100699.34;5048999;28;20095;-67
2022/11/02 06:30:44;;;;;;;34.70;4.38;;;;;;;14.22;100.00;100701.38;5055406;28;20479;-67
2022/11/02 06:33:10;;;;;;;26.60;3.97;;;;;;;14.26;100.00;100697.16;5058952;28;20036;-66
2022/11/02 06:35:35;;;;;;;30.92;4.60;;;;;;;14.26;100.00;100702.56;5095637;28;20046;-66
2022/11/02 06:38:01;;;;;;;34.42;4.20;;;;;;;14.15;100.00;100689.78;5090686;28;20035;-66
2022/11/02 06:40:27;;;;;;;36.83;5.13;;;;;;;14.21;100.00;100700.53;5078307;28;20407;-66
2022/11/02 06:42:58;;;;;;;30.50;4.00;;;;;;;14.24;100.00;100694.69;5089791;28;20089;-67
2022/11/02 06:45:24;;;;;;;31.23;4.38;;;;;;;14.14;100.00;100677.28;5103438;28;20032;-67
2022/11/02 06:47:52;;;;;;;26.88;3.90;;;;;;;14.20;100.00;100690.75;5099672;28;20035;-67
2022/11/02 06:50:17;;;;;;;33.60;4.38;;;;;;;14.25;100.00;100695.50;5094001;28;20035;-67
2022/11/02 06:52:46;;;;;;;19.48;3.78;;;;;;;14.05;100.00;100669.50;5107981;28;20020;-66
2022/11/02 06:55:13;;;;;;;31.88;5.03;;;;;;;14.10;100.00;100675.06;5101313;28;20506;-66
2022/11/02 06:57:40;;;;;;;27.50;3.90;;;;;;;14.10;100.00;100674.22;5101075;28;20076;-67
2022/11/02 07:00:11;;;;;;;35.35;4.05;;;;;;;14.16;100.00;100686.03;5082639;28;20040;-66
2022/11/02 07:02:39;;;;;;;30.48;4.15;;;;;;;14.13;100.00;100690.00;5076090;28;20058;-66
2022/11/02 07:05:05;;;;;;;26.30;3.80;;;;;;;14.00;100.00;100658.50;5100203;28;20036;-66
2022/11/02 07:07:31;;;;;;;35.15;3.83;;;;;;;14.09;100.00;100684.22;5102033;28;20024;-66
2022/11/02 07:09:56;;;;;;;25.75;3.78;;;;;;;14.09;100.00;100684.22;5107358;28;20024;-67
2022/11/02 07:12:22;;;;;;;22.02;3.88;;;;;;;13.95;100.00;100666.50;5077850;28;20060;-66
2022/11/02 07:14:47;;;;;;;32.00;4.00;;;;;;;13.90;100.00;100669.03;5089763;28;20039;-66
2022/11/02 07:17:15;;;;;;;28.13;3.63;;;;;;;14.06;100.00;100695.50;5101193;28;20035;-66
2022/11/02 07:19:41;;;;;;;38.90;4.40;;;;;;;14.01;100.00;100695.34;5100476;28;20032;-66
2022/11/02 07:22:06;;;;;;;32.28;4.88;;;;;;;14.02;100.00;100696.19;5056825;28;20057;-66
2022/11/02 07:24:31;;;;;;;30.15;4.20;;;;;;;14.00;100.00;100699.09;5096037;28;20078;-66
2022/11/02 07:26:57;;;;;;;30.40;4.60;;;;;;;14.03;100.00;100703.22;5071547;28;20029;-67
2022/11/02 07:29:22;;;;;;;25.88;4.68;;;;;;;14.01;100.00;100689.94;5061131;28;20028;-65
2022/11/02 07:31:47;;;;;;;24.98;4.15;;;;;;;13.98;100.00;100689.56;5087617;28;20445;-67
2022/11/02 07:34:13;;;;;;;24.02;4.20;;;;;;;13.98;100.00;100690.38;5095624;28;20049;-67
2022/11/02 07:36:39;;;;;;;25.95;4.25;;;;;;;13.99;100.00;100694.75;5073856;28;20028;-65
2022/11/02 07:39:06;;;;;;;34.38;4.60;;;;;;;13.85;100.00;100668.88;5099641;28;20110;-65
2022/11/02 07:41:32;;;;;;;32.28;4.22;;;;;;;13.92;100.00;100685.06;5101596;28;20028;-65
2022/11/02 07:43:57;;;;;;;31.05;4.55;;;;;;;13.87;100.00;100685.69;5106821;28;20039;-65
2022/11/02 07:46:22;;;;;;;30.23;5.18;;;;;;;13.90;100.00;100676.31;5060644;28;20063;-66
2022/11/02 07:48:48;;;;;;;30.05;4.25;;;;;;;13.76;100.00;100672.94;5089452;28;20482;-67
2022/11/02 07:51:13;;;;;;;31.58;4.30;;;;;;;13.90;100.00;100684.44;5100586;28;20031;-66
2022/11/02 07:53:39;;;;;;;29.77;3.92;;;;;;;13.44;100.00;100600.03;5065352;28;20085;-67
2022/11/02 07:56:05;;;;;;;35.78;5.30;;;;;;;13.80;100.00;100664.13;5072415;28;20040;-66
2022/11/02 07:58:30;;;;;;;33.30;4.57;;;;;;;13.79;100.00;100657.09;5095082;28;20495;-67
2022/11/02 08:00:58;;;;;;;31.35;4.47;;;;;;;13.93;100.00;100678.56;5088015;28;20039;-67
2022/11/02 08:03:24;;;;;;;29.98;4.53;;;;;;;13.97;100.00;100672.50;5083579;28;20119;-66
2022/11/02 08:05:49;;;;;;;28.67;4.63;;;;;;;13.89;100.00;100653.03;5098754;28;20099;-67
2022/11/02 08:08:17;;;;;;;26.75;4.40;;;;;;;14.05;100.00;100674.09;5108489;28;20062;-67
2022/11/02 08:10:44;;;;;;;34.20;4.80;;;;;;;14.06;100.00;100662.19;5095838;28;20035;-67
2022/11/02 08:13:12;;;;;;;30.13;4.20;;;;;;;14.10;100.00;100664.25;5085979;28;20421;-67
2022/11/02 08:15:37;;;;;;;30.63;4.18;;;;;;;14.13;100.00;100664.84;5085205;28;20031;-67
2022/11/02 08:18:05;;;;;;;27.27;4.35;;;;;;;14.12;100.00;100657.78;5096528;28;20042;-66
2022/11/02 08:20:33;;;;;;;31.65;4.38;;;;;;;14.15;100.00;100651.91;5108092;28;20031;-66
2022/11/02 08:22:59;;;;;;;21.52;3.95;;;;;;;14.12;100.00;100647.78;5097843;28;20035;-67
2022/11/02 08:25:25;;;;;;;29.48;4.95;;;;;;;14.24;100.00;100655.97;5067040;28;20088;-66
2022/11/02 08:27:50;;;;;;;28.83;4.85;;;;;;;14.22;100.00;100660.78;5086579;28;20027;-67
2022/11/02 08:30:16;;;;;;;34.97;4.90;;;;;;;14.16;100.00;100654.38;5076698;28;20040;-67
2022/11/02 08:32:41;;;;;;;25.30;4.63;;;;;;;14.20;100.00;100660.16;5072957;28;20027;-67
2022/11/02 08:35:07;;;;;;;26.42;4.65;;;;;;;14.16;100.00;100662.50;5098698;28;20062;-67
2022/11/02 08:37:32;;;;;;;25.13;4.25;;;;;;;14.19;100.00;100662.03;5100594;28;20044;-66
2022/11/02 08:39:58;;;;;;;24.88;4.30;;;;;;;14.17;100.00;100663.31;5087556;28;20138;-67
2022/11/02 08:42:24;;;;;;;26.88;4.40;;;;;;;14.04;100.00;100629.97;5076503;28;20043;-65
2022/11/02 08:44:49;;;;;;;30.02;4.45;;;;;;;14.24;100.00;100651.38;5106881;28;20024;-66
2022/11/02 08:47:16;;;;;;;28.75;4.95;;;;;;;14.26;100.00;100649.25;5099757;28;20035;-65
2022/11/02 08:49:42;;;;;;;19.52;4.03;;;;;;;14.31;100.00;100654.00;5081419;28;20036;-66
2022/11/02 08:52:07;;;;;;;31.65;5.10;;;;;;;14.26;100.00;100640.31;5107124;28;20061;-68
2022/11/02 08:54:32;;;;;;;32.30;4.55;;;;;;;14.38;100.00;100649.34;5059797;28;20115;-66
2022/11/02 08:56:58;;;;;;;29.27;4.72;;;;;;;14.34;100.00;100645.44;5105410;28;20044;-68
2022/11/02 08:59:24;;;;;;;29.63;4.28;;;;;;;14.47;100.00;100656.09;5066039;28;20111;-67
2022/11/02 09:01:50;;;;;;;28.10;4.07;;;;;;;14.49;100.00;100653.13;5079672;28;20031;-66
2022/11/02 09:04:15;;;;;;;26.45;3.97;;;;;;;14.48;100.00;100648.78;5107891;28;20106;-67
2022/11/02 09:06:40;;;;;;;29.30;3.95;;;;;;;14.50;100.00;100642.13;5076486;28;20039;-67
2022/11/02 09:09:06;;;;;;;31.35;4.75;;;;;;;14.48;100.00;100644.19;5085931;28;20482;-68
2022/11/02 09:11:31;;;;;;;27.20;4.15;;;;;;;14.51;100.00;100651.06;5083176;28;20035;-67
2022/11/02 09:13:57;;;;;;;24.52;3.80;;;;;;;14.47;100.00;100641.69;5097144;28;20043;-67
2022/11/02 09:16:22;;;;;;;23.90;4.35;;;;;;;14.60;100.00;100646.97;5092255;28;20039;-67
2022/11/02 09:18:47;;;;;;;18.90;3.45;;;;;;;14.58;100.00;100646.38;5099349;28;20088;-66
2022/11/02 09:21:13;;;;;;;26.42;3.60;;;;;;;14.50;100.00;100657.50;5107145;28;20470;-66
2022/11/02 09:23:39;;;;;;;22.58;3.78;;;;;;;14.51;100.00;100646.47;5106624;28;20043;-65
2022/11/02 09:26:04;;;;;;;28.23;3.20;;;;;;;14.53;100.00;100640.81;5081690;28;20032;-66
2022/11/02 09:28:30;;;;;;;23.20;3.20;;;;;;;14.75;100.00;100641.16;5111564;28;20062;-65
2022/11/02 09:30:55;;;;;;;17.70;2.92;;;;;;;14.75;100.00;100641.16;5100268;28;20055;-66
2022/11/02 09:33:20;;;;;;;14.43;2.70;;;;;;;14.67;100.00;100646.88;5105645;28;20032;-66
2022/11/02 09:35:48;;;;;;;18.55;3.85;;;;;;;14.69;100.00;100637.47;5107493;28;20036;-65
2022/11/02 09:38:13;;;;;;;21.42;2.97;;;;;;;14.54;100.00;100651.44;5098573;28;20066;-66
2022/11/02 09:40:49;;;;;;;22.85;3.08;;;;;;;14.49;100.00;100636.91;5111307;28;20099;-65
2022/11/02 09:43:24;;;;;;;27.45;3.88;;;;;;;14.56;100.00;100627.66;5102736;28;20085;-66
2022/11/02 09:45:54;;;;;;;22.08;4.10;;;;;;;14.55;100.00;100636.84;5101734;28;20028;-67
2022/11/02 09:48:29;;;;;;;22.92;4.03;;;;;;;14.65;100.00;100632.75;5111194;28;20490;-65
2022/11/02 09:51:11;;;;;;;21.38;3.55;;;;;;;14.68;100.00;100624.19;5099855;28;20023;-66
2022/11/02 09:53:42;;;;;;;27.70;3.95;;;;;;;14.74;100.00;100625.97;5103500;28;20032;-66
2022/11/02 09:56:09;;;;;;;22.15;4.18;;;;;;;14.71;100.00;100624.53;5091619;28;20080;-66
2022/11/02 09:58:38;;;;;;;18.67;3.55;;;;;;;14.86;100.00;100621.38;5062555;28;20143;-65
2022/11/02 10:01:23;;;;;;;27.73;4.03;;;;;;;14.93;100.00;100611.28;5089600;28;20028;-66
2022/11/02 10:04:16;;;;;;;26.48;4.00;;;;;;;14.89;100.00;100620.09;5107092;28;20027;-65
2022/11/02 10:06:49;;;;;;;23.23;4.03;;;;;;;14.86;100.00;100623.28;5097537;28;20401;-66
2022/11/02 10:09:24;;;;;;;20.75;3.33;;;;;;;14.67;100.00;100598.97;5106423;28;20020;-66
2022/11/02 10:12:07;;;;;;;20.33;3.67;;;;;;;14.74;100.00;100623.25;5088838;28;20030;-65
2022/11/02 10:14:41;;;;;;;16.38;3.20;;;;;;;14.79;100.00;100617.94;5097350;28;20044;-66
2022/11/02 10:17:34;;;;;;;20.25;3.90;;;;;;;14.83;100.00;100621.03;5107478;28;20034;-65
2022/11/02 10:20:06;;;;;;;19.92;3.42;;;;;;;14.78;100.00;100616.31;5030876;28;20092;-66
2022/11/02 10:22:37;;;;;;;19.65;3.45;;;;;;;14.85;100.00;100614.31;5049251;28;20044;-66
2022/11/02 10:25:05;;;;;;;23.17;3.30;;;;;;;14.89;100.00;100611.97;5051175;28;20048;-66
2022/11/02 10:27:36;;;;;;;19.38;3.45;;;;;;;14.87;100.00;100601.38;5051166;28;20025;-65
2022/11/02 10:30:17;;;;;;;19.55;3.35;;;;;;;14.82;100.00;100603.94;5051055;28;20504;-66
2022/11/02 10:32:44;;;;;;;22.27;3.90;;;;;;;14.79;100.00;100609.84;5034941;28;20033;-66
2022/11/02 10:35:33;;;;;;;18.38;3.50;;;;;;;14.87;100.00;100606.81;5034281;28;20110;-66
2022/11/02 10:38:34;;;;;;;19.90;3.50;;;;;;;14.91;100.00;100618.81;5034254;28;20032;-66
2022/11/02 10:41:17;;;;;;;22.02;3.05;;;;;;;14.95;100.00;100616.47;5021743;28;20071;-66
2022/11/02 10:43:54;;;;;;;19.90;3.15;;;;;;;14.92;100.00;100620.47;5050917;28;20045;-65
2022/11/02 10:46:25;;;;;;;20.50;3.30;;;;;;;14.90;100.00;100616.31;5050820;28;20120;-66
2022/11/02 10:49:19;;;;;;;19.17;2.75;;;;;;;14.88;100.00;100613.88;5051172;28;20111;-66
2022/11/02 10:51:45;;;;;;;21.08;3.80;;;;;;;14.75;100.00;100614.06;5097366;28;20051;-66
2022/11/02 10:54:13;;;;;;;17.20;2.65;;;;;;;14.80;100.00;100606.91;5062460;28;20044;-66
2022/11/02 10:56:40;;;;;;;15.70;2.92;;;;;;;14.78;100.00;100613.59;5109977;28;20019;-65
2022/11/02 10:59:13;;;;;;;19.73;3.13;;;;;;;14.72;100.00;100603.69;5099437;28;20401;-65
2022/11/02 11:01:46;;;;;;;15.65;2.95;;;;;;;14.69;100.00;100596.84;5070315;28;20036;-66
2022/11/02 11:04:24;;;;;;;16.52;2.50;;;;;;;14.51;100.00;100581.50;5070251;28;20040;-65
2022/11/02 11:06:50;;;;;;;13.90;2.97;;;;;;;14.44;100.00;100586.16;5039101;28;20041;-66
2022/11/02 11:09:25;;;;;;;15.65;2.92;;;;;;;14.65;100.00;100608.38;5070431;28;20036;-66
2022/11/02 11:12:00;;;;;;;19.23;3.25;;;;;;;14.66;100.00;100610.03;5060717;28;20165;-66
2022/11/02 11:14:46;;;;;;;20.95;3.60;;;;;;;14.92;100.00;100608.81;5067704;28;20132;-66
2022/11/02 11:17:17;;;;;;;21.92;3.28;;;;;;;14.82;100.00;100590.41;5050066;28;20049;-66
2022/11/02 11:19:53;;;;;;;20.83;3.70;;;;;;;14.86;100.00;100599.72;5050006;28;20065;-65
2022/11/02 11:22:38;;;;;;;19.17;3.08;;;;;;;14.88;100.00;100604.91;5033257;28;20044;-66
2022/11/02 11:25:24;;;;;;;17.38;2.53;;;;;;;14.54;100.00;100528.78;5049897;28;20040;-65
2022/11/02 11:27:54;;;;;;;18.88;2.85;;;;;;;14.99;100.00;100610.34;5033372;28;20054;-65
2022/11/02 11:30:48;;;;;;;14.88;2.33;;;;;;;14.52;100.00;100549.84;5049835;28;20052;-65
2022/11/02 11:33:18;;;;;;;13.65;2.40;;;;;;;14.85;100.00;100592.66;5071784;28;20074;-66
2022/11/02 11:35:48;;;;;;;17.65;2.80;;;;;;;14.98;100.00;100591.63;5078182;28;20162;-66
2022/11/02 11:38:20;;;;;;;17.35;2.33;;;;;;;15.09;100.00;100604.34;5068138;28;20052;-68
2022/11/02 11:40:52;;;;;;;18.83;2.70;;;;;;;15.07;100.00;100609.19;5040198;28;20028;-68
2022/11/02 11:43:20;;;;;;;16.35;2.60;;;;;;;15.04;100.00;100605.06;5084723;28;20414;-65